Time;durP1;ratioP1;P1;durP2;ratioP2;P2;SDS_P1;SDS_P2;PMS_P1;PMS_P2;Temp;Humidity;BMP_temperature;BMP_pressure;BME280_temperature;BME280_humidity;BME280_pressure;Samples;Min_cycle;Max_cycle;Signal;HPM_P1;HPM_P2
2024/01/03 00:00:29;;;;;;;7.57;1.60;;;;;;;14.91;54.30;98618.06;4952783;28;113471;-82
2024/01/03 00:02:57;;;;;;;10.25;1.77;;;;;;;14.92;54.16;98620.59;4968526;28;124032;-82
2024/01/03 00:05:36;;;;;;;10.35;1.77;;;;;;;14.92;54.15;98620.59;4951945;28;123603;-81
2024/01/03 00:08:05;;;;;;;11.40;2.08;;;;;;;14.93;54.12;98614.25;4953560;28;112756;-81
2024/01/03 00:10:48;;;;;;;11.70;1.80;;;;;;;14.94;53.94;98626.59;4969985;28;115532;-82
2024/01/03 00:13:43;;;;;;;7.47;1.50;;;;;;;14.94;53.83;98634.59;4968612;28;123346;-82
2024/01/03 00:16:22;;;;;;;5.53;1.23;;;;;;;14.94;53.46;98633.78;4960249;28;126018;-82
2024/01/03 00:18:49;;;;;;;12.10;1.70;;;;;;;14.94;53.68;98623.13;4952626;28;114927;-82
2024/01/03 00:21:22;;;;;;;7.40;1.38;;;;;;;14.95;53.42;98633.59;4952483;28;114131;-82
2024/01/03 00:23:52;;;;;;;7.43;1.63;;;;;;;14.96;53.33;98637.94;4960383;28;124783;-82
2024/01/03 00:26:20;;;;;;;9.30;1.42;;;;;;;14.96;53.31;98643.28;4951606;28;124437;-82
2024/01/03 00:28:47;;;;;;;6.85;1.42;;;;;;;14.96;53.05;98637.94;4967771;28;114341;-82
2024/01/03 00:31:33;;;;;;;9.27;1.60;;;;;;;14.95;53.13;98625.59;4953731;28;116988;-82
2024/01/03 00:34:01;;;;;;;6.45;1.65;;;;;;;14.97;53.24;98684.97;4950615;28;124566;-81
2024/01/03 00:36:29;;;;;;;9.57;1.40;;;;;;;14.95;53.16;98651.44;4955631;28;123922;-82
2024/01/03 00:38:56;;;;;;;6.68;1.45;;;;;;;14.96;52.69;98659.28;4957479;28;114242;-82
2024/01/03 00:41:23;;;;;;;5.47;1.30;;;;;;;14.96;52.78;98648.63;4957834;28;114126;-82
2024/01/03 00:43:50;;;;;;;12.60;1.38;;;;;;;14.96;52.70;98685.94;4956446;28;123643;-81
2024/01/03 00:46:18;;;;;;;8.52;1.80;;;;;;;14.97;52.70;98655.63;4955317;28;122656;-81
2024/01/03 00:48:45;;;;;;;10.57;1.80;;;;;;;14.97;52.62;98660.97;4947234;28;114633;-82
2024/01/03 00:51:12;;;;;;;8.85;1.80;;;;;;;14.96;52.36;98664.59;4975458;28;114669;-81
2024/01/03 00:53:40;;;;;;;7.10;1.80;;;;;;;14.96;52.66;98687.78;4983966;28;124676;-82
2024/01/03 00:56:07;;;;;;;8.48;1.58;;;;;;;14.95;52.66;98673.56;4969261;28;125129;-82
2024/01/03 00:58:34;;;;;;;11.23;2.00;;;;;;;14.94;52.57;98674.59;4961977;28;113745;-83
2024/01/03 01:01:02;;;;;;;10.25;1.90;;;;;;;14.94;52.66;98674.59;4957433;28;112987;-82
2024/01/03 01:03:29;;;;;;;10.55;2.08;;;;;;;14.92;52.66;98689.06;4953955;28;124926;-83
2024/01/03 01:05:56;;;;;;;13.15;2.28;;;;;;;14.90;52.75;98691.88;4967262;28;124812;-82
2024/01/03 01:08:24;;;;;;;15.20;2.17;;;;;;;14.89;52.74;98695.50;4951565;28;114901;-83
2024/01/03 01:10:51;;;;;;;15.25;2.70;;;;;;;14.88;52.79;98699.19;4969503;28;113789;-82
2024/01/03 01:13:18;;;;;;;14.77;2.40;;;;;;;14.85;52.88;98704.81;4950121;28;124153;-82
2024/01/03 01:15:45;;;;;;;10.88;2.20;;;;;;;14.85;53.02;98704.81;4970050;28;124647;-82
2024/01/03 01:18:13;;;;;;;12.23;2.47;;;;;;;14.84;53.27;98697.78;4950019;28;116483;-82
2024/01/03 01:20:40;;;;;;;13.70;2.35;;;;;;;14.82;53.38;98718.41;4950581;28;116173;-81
2024/01/03 01:23:08;;;;;;;16.17;3.17;;;;;;;14.81;53.26;98718.59;4950290;28;125086;-81
2024/01/03 01:25:35;;;;;;;14.27;2.40;;;;;;;14.79;53.32;98721.41;4951601;28;123844;-83
2024/01/03 01:28:02;;;;;;;14.93;1.90;;;;;;;14.77;53.56;98707.38;4966574;28;114593;-82
2024/01/03 01:30:29;;;;;;;13.27;2.60;;;;;;;14.76;53.31;98716.34;4967825;28;113056;-82
2024/01/03 01:32:56;;;;;;;14.00;2.40;;;;;;;14.75;53.71;98731.50;4953482;28;124168;-81
2024/01/03 01:35:24;;;;;;;12.32;1.73;;;;;;;14.74;53.75;98734.31;4970266;28;124616;-82
2024/01/03 01:37:51;;;;;;;12.00;1.95;;;;;;;14.72;54.01;98725.63;4971505;28;114356;-82
2024/01/03 01:40:18;;;;;;;15.77;2.35;;;;;;;14.69;53.77;98747.22;4969392;28;115539;-82
2024/01/03 01:42:46;;;;;;;11.85;2.33;;;;;;;14.67;53.86;98738.53;4969151;28;122370;-82
2024/01/03 01:45:14;;;;;;;15.43;2.30;;;;;;;14.64;53.99;98750.34;4969180;28;124860;-82
2024/01/03 01:47:42;;;;;;;12.77;1.98;;;;;;;14.64;54.38;98749.53;4954058;28;113569;-82
2024/01/03 01:50:10;;;;;;;9.55;2.22;;;;;;;14.64;54.09;98749.53;4950633;28;113395;-83
2024/01/03 01:52:39;;;;;;;16.60;2.92;;;;;;;14.64;54.24;98749.53;4968288;28;124923;-82
2024/01/03 01:55:07;;;;;;;13.73;2.38;;;;;;;14.64;54.38;98754.84;4952738;28;124911;-83
2024/01/03 01:57:37;;;;;;;8.68;2.00;;;;;;;14.64;54.47;98760.19;4935916;28;114526;-83
2024/01/03 02:00:05;;;;;;;14.20;2.55;;;;;;;14.63;54.39;98758.47;4966486;28;113821;-82
2024/01/03 02:02:39;;;;;;;10.18;2.20;;;;;;;14.63;54.54;98753.16;4965751;28;124899;-82
2024/01/03 02:05:07;;;;;;;14.32;1.90;;;;;;;14.60;54.50;98755.13;4965301;28;125603;-82
2024/01/03 02:07:36;;;;;;;13.65;2.30;;;;;;;14.62;54.60;98768.31;4933069;28;114724;-82
2024/01/03 02:10:03;;;;;;;18.67;2.63;;;;;;;14.60;54.61;98765.78;4951316;28;115810;-82
2024/01/03 02:12:30;;;;;;;15.48;2.35;;;;;;;14.62;54.79;98756.78;4949712;28;126074;-81
2024/01/03 02:14:57;;;;;;;18.20;2.58;;;;;;;14.63;54.79;98769.13;4944628;28;123968;-82
2024/01/03 02:17:27;;;;;;;11.82;1.65;;;;;;;14.63;54.70;98769.13;4953284;28;116384;-81
2024/01/03 02:20:00;;;;;;;10.25;2.08;;;;;;;14.64;54.88;98770.84;4964893;28;115099;-81
2024/01/03 02:22:28;;;;;;;11.55;2.35;;;;;;;14.66;54.99;98763.53;4950553;28;122309;-82
2024/01/03 02:24:56;;;;;;;9.98;2.30;;;;;;;14.66;54.89;98779.50;4928652;28;124592;-82
2024/01/03 02:27:23;;;;;;;13.73;2.45;;;;;;;14.67;54.91;98781.19;4949944;28;114277;-82
2024/01/03 02:29:50;;;;;;;9.48;2.00;;;;;;;14.67;54.92;98791.84;4960233;28;115334;-82
2024/01/03 02:32:17;;;;;;;11.32;1.83;;;;;;;14.69;55.04;98781.88;4966766;28;123532;-82
2024/01/03 02:34:44;;;;;;;12.48;2.10;;;;;;;14.68;54.83;98780.22;4988577;28;123832;-81
2024/01/03 02:37:12;;;;;;;14.95;2.10;;;;;;;14.70;55.12;98772.91;4962819;28;114683;-82
2024/01/03 02:39:39;;;;;;;11.15;1.90;;;;;;;14.71;54.85;98787.88;4984986;28;113195;-81
2024/01/03 02:42:06;;;;;;;11.40;1.60;;;;;;;14.71;54.93;98799.41;4979209;28;123737;-82
2024/01/03 02:44:33;;;;;;;11.13;2.05;;;;;;;14.72;54.89;98789.59;4978321;28;123772;-81
2024/01/03 02:47:00;;;;;;;7.60;1.80;;;;;;;14.74;54.93;98783.09;4974153;28;115386;-81
2024/01/03 02:49:28;;;;;;;11.07;1.92;;;;;;;14.76;54.85;98785.63;4984732;28;115220;-81
2024/01/03 02:51:55;;;;;;;14.05;2.25;;;;;;;14.76;55.24;98790.97;4961641;28;124579;-81
2024/01/03 02:54:22;;;;;;;17.98;2.85;;;;;;;14.75;55.05;98800.78;4959770;28;123183;-81
2024/01/03 02:56:49;;;;;;;18.23;2.65;;;;;;;14.75;55.13;98794.63;4988159;28;115164;-82
2024/01/03 02:59:16;;;;;;;16.63;3.03;;;;;;;14.72;55.18;98801.06;4957462;28;112908;-82
2024/01/03 03:01:44;;;;;;;17.52;2.90;;;;;;;14.71;55.24;98793.22;4953567;28;122078;-81
2024/01/03 03:04:11;;;;;;;11.02;2.75;;;;;;;14.69;55.47;98801.38;4970634;28;123661;-82
2024/01/03 03:06:38;;;;;;;14.65;2.85;;;;;;;14.66;55.35;98795.50;4970892;28;114510;-82
2024/01/03 03:09:05;;;;;;;13.93;2.92;;;;;;;14.64;55.56;98802.81;4971254;28;112881;-82
2024/01/03 03:11:43;;;;;;;21.92;3.15;;;;;;;14.60;55.62;98812.91;4971137;28;123608;-81
2024/01/03 03:14:10;;;;;;;15.50;2.85;;;;;;;14.57;55.78;98808.69;4954138;28;125868;-82
2024/01/03 03:16:38;;;;;;;17.95;2.75;;;;;;;14.55;55.88;98791.97;4962993;28;113507;-81
2024/01/03 03:19:05;;;;;;;15.93;3.08;;;;;;;14.52;55.94;98816.28;4956369;28;113074;-81
2024/01/03 03:21:33;;;;;;;14.65;3.20;;;;;;;14.50;55.97;98804.88;4952597;28;123858;-81
2024/01/03 03:24:01;;;;;;;13.05;2.50;;;;;;;14.49;56.16;98800.56;4958293;28;125568;-81
2024/01/03 03:26:28;;;;;;;13.63;2.83;;;;;;;14.47;56.12;98813.19;4960615;28;112983;-81
2024/01/03 03:28:55;;;;;;;15.80;2.83;;;;;;;14.46;56.25;98819.47;4963067;28;111890;-82
2024/01/03 03:31:23;;;;;;;15.57;3.15;;;;;;;14.44;56.29;98826.78;4985099;28;122713;-81
2024/01/03 03:33:50;;;;;;;16.02;2.70;;;;;;;14.41;56.59;98824.44;4967816;28;122153;-81
2024/01/03 03:36:20;;;;;;;14.57;2.63;;;;;;;14.40;56.42;98828.06;4987190;28;113524;-81
2024/01/03 03:38:47;;;;;;;21.48;3.35;;;;;;;14.38;56.46;98827.38;4978031;28;114582;-81
2024/01/03 03:41:15;;;;;;;19.25;2.80;;;;;;;14.36;56.57;98832.00;4954471;28;122660;-82
2024/01/03 03:43:42;;;;;;;18.48;3.25;;;;;;;14.36;56.55;98832.81;4985654;28;124158;-81
2024/01/03 03:46:11;;;;;;;15.25;3.03;;;;;;;14.35;56.69;98830.31;4966740;28;114472;-82
2024/01/03 03:48:38;;;;;;;15.77;2.78;;;;;;;14.32;56.69;98827.94;4983091;28;113696;-81
2024/01/03 03:51:07;;;;;;;18.98;2.88;;;;;;;14.31;56.81;98834.25;4977585;28;123896;-81
2024/01/03 03:53:34;;;;;;;14.35;2.80;;;;;;;14.30;56.76;98843.22;4939347;28;122174;-81
2024/01/03 03:56:01;;;;;;;17.38;3.05;;;;;;;14.30;56.54;98837.91;4970363;28;114987;-81
2024/01/03 03:58:28;;;;;;;15.48;2.63;;;;;;;14.29;56.79;98831.72;4954558;28;112951;-81
2024/01/03 04:00:55;;;;;;;20.67;2.75;;;;;;;14.30;57.16;98837.91;4971458;28;125365;-82
2024/01/03 04:03:22;;;;;;;17.83;3.30;;;;;;;14.28;57.09;98829.19;4954177;28;125894;-81
2024/01/03 04:05:49;;;;;;;17.33;2.83;;;;;;;14.25;57.09;98819.66;4980956;28;113577;-81
2024/01/03 04:08:17;;;;;;;18.40;3.28;;;;;;;14.24;57.16;98849.09;4962457;28;114480;-81
2024/01/03 04:10:44;;;;;;;16.45;3.35;;;;;;;14.20;57.50;98857.38;4982179;28;123608;-81
2024/01/03 04:13:11;;;;;;;18.35;3.03;;;;;;;14.16;57.56;98855.97;4970964;28;124809;-82
2024/01/03 04:15:38;;;;;;;23.23;3.22;;;;;;;14.11;57.79;98844.91;4946926;28;116139;-82
2024/01/03 04:18:06;;;;;;;19.75;2.97;;;;;;;14.06;58.09;98852.47;4967309;28;115510;-81
2024/01/03 04:20:33;;;;;;;19.77;2.80;;;;;;;14.00;58.30;98851.22;4966721;28;123751;-81
2024/01/03 04:23:01;;;;;;;17.38;3.05;;;;;;;13.94;58.48;98853.63;4968666;28;124127;-82
2024/01/03 04:25:28;;;;;;;14.48;2.63;;;;;;;13.88;58.46;98862.13;4953238;28;113703;-82
2024/01/03 04:27:56;;;;;;;20.98;2.55;;;;;;;13.81;58.81;98845.91;4954202;28;115284;-82
2024/01/03 04:30:23;;;;;;;15.55;2.35;;;;;;;13.75;59.26;98865.91;4937400;28;123025;-82
2024/01/03 04:32:50;;;;;;;16.85;2.90;;;;;;;13.69;59.33;98845.16;4948273;28;123391;-83
2024/01/03 04:35:17;;;;;;;16.48;2.38;;;;;;;13.61;59.40;98847.69;4951131;28;116331;-83
2024/01/03 04:37:45;;;;;;;13.13;2.20;;;;;;;13.56;59.46;98852.56;4965245;28;115870;-84
2024/01/03 04:40:12;;;;;;;15.20;2.78;;;;;;;13.52;59.70;98859.16;4965975;28;124246;-84
2024/01/03 04:42:39;;;;;;;13.50;2.15;;;;;;;13.50;60.13;98867.25;4932100;28;124858;-84
2024/01/03 04:45:07;;;;;;;15.07;3.08;;;;;;;13.46;59.95;98854.38;4958332;28;113987;-85
2024/01/03 04:47:34;;;;;;;20.77;3.15;;;;;;;13.44;60.15;98858.00;4939403;28;114847;-84
2024/01/03 04:50:02;;;;;;;13.95;2.10;;;;;;;13.42;60.22;98870.59;4962920;28;123239;-84
2024/01/03 04:52:29;;;;;;;10.30;2.13;;;;;;;13.40;60.22;98861.91;4966549;28;123978;-85
2024/01/03 04:54:56;;;;;;;10.98;2.22;;;;;;;13.40;60.46;98871.72;4961477;28;116319;-84
2024/01/03 04:57:23;;;;;;;10.90;2.30;;;;;;;13.38;60.55;98863.88;4946395;28;115634;-84
2024/01/03 04:59:51;;;;;;;15.55;2.20;;;;;;;13.38;60.58;98858.56;4964909;28;125523;-84
2024/01/03 05:02:18;;;;;;;14.07;2.03;;;;;;;13.37;60.55;98862.22;4963518;28;124105;-85
2024/01/03 05:04:45;;;;;;;10.70;2.15;;;;;;;13.35;60.70;98853.50;4932593;28;115599;-84
2024/01/03 05:07:13;;;;;;;12.55;2.00;;;;;;;13.35;60.55;98852.66;4949755;28;115029;-83
2024/01/03 05:09:40;;;;;;;11.32;2.05;;;;;;;13.32;60.65;98864.44;4948330;28;125978;-84
2024/01/03 05:12:07;;;;;;;12.95;2.22;;;;;;;13.31;60.84;98852.09;4948151;28;124092;-83
2024/01/03 05:14:34;;;;;;;7.03;1.80;;;;;;;13.32;60.85;98868.91;4946278;28;115077;-84
2024/01/03 05:17:02;;;;;;;8.30;1.63;;;;;;;13.31;60.69;98868.03;4943725;28;111956;-83
2024/01/03 05:19:29;;;;;;;13.95;1.90;;;;;;;13.31;60.89;98862.72;4965624;28;123903;-84
2024/01/03 05:21:56;;;;;;;8.27;1.75;;;;;;;13.30;60.77;98865.50;4965715;28;125850;-84
2024/01/03 05:24:24;;;;;;;11.70;1.88;;;;;;;13.31;60.91;98873.38;4948639;28;115051;-83
2024/01/03 05:26:51;;;;;;;8.60;1.77;;;;;;;13.31;60.81;98873.38;4949726;28;116343;-84
2024/01/03 05:29:18;;;;;;;7.43;1.73;;;;;;;13.31;60.80;98873.38;4966265;28;126198;-83
2024/01/03 05:31:45;;;;;;;7.60;1.40;;;;;;;13.31;60.78;98881.34;4949455;28;124795;-83
2024/01/03 05:34:13;;;;;;;6.15;1.63;;;;;;;13.28;60.77;98881.59;4966617;28;113914;-83
2024/01/03 05:36:40;;;;;;;10.25;1.45;;;;;;;13.27;61.01;98877.25;4966151;28;114597;-83
2024/01/03 05:39:08;;;;;;;9.73;1.58;;;;;;;13.25;60.88;98879.19;4962036;28;125390;-83
2024/01/03 05:41:35;;;;;;;11.50;1.77;;;;;;;13.24;61.05;98893.44;4959388;28;123848;-83
2024/01/03 05:44:02;;;;;;;8.60;1.33;;;;;;;13.22;60.91;98884.78;4948865;28;115923;-83
2024/01/03 05:46:29;;;;;;;6.35;1.20;;;;;;;13.19;61.06;98879.75;4964397;28;114810;-83
2024/01/03 05:48:57;;;;;;;8.57;1.30;;;;;;;13.15;61.13;98871.19;4948183;28;123525;-83
2024/01/03 05:51:25;;;;;;;8.43;1.40;;;;;;;13.15;61.36;98878.34;4950743;28;123592;-83
2024/01/03 05:53:52;;;;;;;10.77;1.30;;;;;;;13.12;61.34;98878.59;4955545;28;115190;-83
2024/01/03 05:56:19;;;;;;;5.25;1.33;;;;;;;13.10;61.26;98880.53;4946995;28;113829;-83
2024/01/03 05:58:47;;;;;;;6.60;1.17;;;;;;;13.10;61.23;98880.53;4964323;28;122164;-83
2024/01/03 06:01:15;;;;;;;5.88;1.17;;;;;;;13.09;61.45;98886.81;4937133;28;124163;-83
2024/01/03 06:03:43;;;;;;;5.47;1.13;;;;;;;13.08;61.42;98882.50;4957591;28;114167;-83
2024/01/03 06:06:10;;;;;;;5.72;1.23;;;;;;;13.08;61.38;98882.50;4965953;28;114478;-83
2024/01/03 06:08:38;;;;;;;5.57;1.10;;;;;;;13.07;61.71;98880.81;4967850;28;123276;-83
2024/01/03 06:11:08;;;;;;;7.03;1.27;;;;;;;13.07;61.50;98888.78;4964102;28;126585;-82
2024/01/03 06:13:35;;;;;;;4.78;1.00;;;;;;;13.05;61.41;98884.44;4948456;28;114786;-83
2024/01/03 06:16:03;;;;;;;2.72;0.93;;;;;;;13.04;61.53;98880.09;4950034;28;116178;-83
2024/01/03 06:18:30;;;;;;;5.28;1.25;;;;;;;13.03;61.44;98881.09;4965856;28;124090;-82
2024/01/03 06:20:57;;;;;;;5.63;1.10;;;;;;;13.02;61.42;98879.38;4965706;28;125017;-83
2024/01/03 06:23:25;;;;;;;6.50;1.13;;;;;;;13.01;61.47;98888.31;4967818;28;115055;-83
2024/01/03 06:25:52;;;;;;;5.07;0.93;;;;;;;13.01;61.55;98893.63;4937687;28;114247;-83
2024/01/03 06:28:21;;;;;;;5.70;1.08;;;;;;;13.01;61.40;98888.31;4968705;28;125920;-82
2024/01/03 06:30:49;;;;;;;5.40;1.35;;;;;;;13.01;61.46;98904.25;4966583;28;124920;-83
2024/01/03 06:33:16;;;;;;;6.82;1.30;;;;;;;13.00;61.53;98886.66;4946986;28;114902;-83
2024/01/03 06:35:44;;;;;;;7.63;1.30;;;;;;;12.98;61.55;98899.22;4964428;28;113779;-83
2024/01/03 06:38:11;;;;;;;6.15;1.00;;;;;;;12.97;61.64;98908.16;4964596;28;125012;-82
2024/01/03 06:40:38;;;;;;;5.38;1.20;;;;;;;12.97;61.71;98912.66;4968137;28;123424;-82
2024/01/03 06:43:06;;;;;;;6.45;1.30;;;;;;;12.95;61.60;98903.97;4954806;28;115690;-82
2024/01/03 06:45:33;;;;;;;5.45;1.13;;;;;;;12.92;61.80;98910.41;4952158;28;113941;-82
2024/01/03 06:48:01;;;;;;;5.00;1.23;;;;;;;12.92;61.93;98914.84;4951583;28;125042;-82
2024/01/03 06:50:29;;;;;;;8.07;1.50;;;;;;;12.89;62.06;98905.34;4967246;28;122268;-83
2024/01/03 06:52:56;;;;;;;7.70;1.20;;;;;;;12.88;62.03;98908.13;4968414;28;115620;-82
2024/01/03 06:55:23;;;;;;;4.25;1.17;;;;;;;12.85;62.06;98903.94;4968462;28;114045;-82
2024/01/03 06:57:51;;;;;;;6.60;1.38;;;;;;;12.84;62.40;98910.19;4946903;28;125474;-82
2024/01/03 07:00:19;;;;;;;5.72;1.20;;;;;;;12.80;62.17;98906.97;4947547;28;124202;-82
2024/01/03 07:02:46;;;;;;;4.70;1.00;;;;;;;12.78;62.09;98921.34;4949590;28;116414;-83
2024/01/03 07:05:13;;;;;;;5.47;1.13;;;;;;;12.75;62.15;98913.63;4964291;28;115423;-82
2024/01/03 07:07:41;;;;;;;4.95;1.05;;;;;;;12.72;62.22;98925.38;4937647;28;125082;-83
2024/01/03 07:10:08;;;;;;;4.22;0.90;;;;;;;12.69;62.35;98914.16;4949761;28;125100;-83
2024/01/03 07:12:37;;;;;;;3.65;1.00;;;;;;;12.64;62.33;98928.69;4969727;28;115192;-81
2024/01/03 07:15:09;;;;;;;5.85;1.00;;;;;;;12.62;62.35;98925.31;4990242;28;113216;-81
2024/01/03 07:17:36;;;;;;;3.47;0.70;;;;;;;12.58;62.52;98918.59;4941520;28;122117;-82
2024/01/03 07:20:03;;;;;;;2.65;0.68;;;;;;;12.55;62.37;98913.53;4969345;28;122376;-82
2024/01/03 07:22:31;;;;;;;5.75;1.00;;;;;;;12.51;62.34;98917.41;4951698;28;116201;-82
2024/01/03 07:24:58;;;;;;;5.55;1.00;;;;;;;12.49;62.47;98918.50;4949650;28;114323;-82
2024/01/03 07:27:25;;;;;;;4.20;0.80;;;;;;;12.46;62.50;98914.28;4967131;28;123125;-83
2024/01/03 07:29:53;;;;;;;3.42;0.77;;;;;;;12.43;62.52;98915.41;4949924;28;125828;-82
2024/01/03 07:32:21;;;;;;;5.45;0.85;;;;;;;12.42;62.44;98936.75;4950858;28;114580;-83
2024/01/03 07:34:48;;;;;;;3.75;0.93;;;;;;;12.41;62.61;98937.72;4956321;28;113185;-82
2024/01/03 07:37:15;;;;;;;3.83;0.90;;;;;;;12.40;62.60;98936.06;4967150;28;126456;-83
2024/01/03 07:39:42;;;;;;;4.15;1.00;;;;;;;12.38;62.70;98949.44;4950350;28;125385;-82
2024/01/03 07:42:09;;;;;;;3.08;0.80;;;;;;;12.36;62.75;98950.56;4966607;28;115466;-82
2024/01/03 07:44:41;;;;;;;2.63;0.77;;;;;;;12.34;62.51;98941.84;4966672;28;113644;-82
2024/01/03 07:47:10;;;;;;;1.20;0.60;;;;;;;12.31;62.46;98952.75;4949071;28;125442;-82
2024/01/03 07:49:38;;;;;;;1.27;0.80;;;;;;;12.29;62.40;98949.38;4948266;28;125579;-83
2024/01/03 07:52:06;;;;;;;2.47;0.60;;;;;;;12.26;62.36;98945.16;4933504;28;115543;-83
2024/01/03 07:54:33;;;;;;;1.23;0.77;;;;;;;12.22;62.42;98944.59;4947305;28;114442;-83
2024/01/03 07:57:04;;;;;;;1.90;0.50;;;;;;;12.21;62.38;98947.34;4961561;28;125700;-83
2024/01/03 07:59:32;;;;;;;0.90;0.55;;;;;;;12.17;62.24;98957.38;4939542;28;124387;-83
2024/01/03 08:01:59;;;;;;;2.03;0.60;;;;;;;12.14;62.38;98962.94;4963968;28;115326;-83
2024/01/03 08:04:27;;;;;;;1.42;0.60;;;;;;;12.13;62.27;98955.94;4948351;28;114632;-82
2024/01/03 08:06:54;;;;;;;1.30;0.40;;;;;;;12.11;62.21;98963.19;4962885;28;122511;-83
2024/01/03 08:09:21;;;;;;;2.85;0.50;;;;;;;12.10;62.33;98965.97;4956145;28;124984;-84
2024/01/03 08:11:49;;;;;;;1.58;0.73;;;;;;;12.10;62.44;98971.28;4947910;28;115053;-83
2024/01/03 08:14:16;;;;;;;1.42;0.60;;;;;;;12.07;62.35;98967.03;4975962;28;112458;-83
2024/01/03 08:16:43;;;;;;;1.00;0.50;;;;;;;12.06;62.35;98965.38;4965548;28;124556;-81
2024/01/03 08:19:10;;;;;;;0.90;0.70;;;;;;;12.05;62.33;98971.63;4973752;28;123228;-82
2024/01/03 08:21:37;;;;;;;1.58;0.77;;;;;;;12.06;62.29;98976.00;4958145;28;115370;-84
2024/01/03 08:24:05;;;;;;;1.67;0.93;;;;;;;12.05;62.67;98976.94;4973887;28;115076;-83
2024/01/03 08:26:32;;;;;;;1.98;1.00;;;;;;;12.05;62.46;98984.91;4957716;28;126159;-83
2024/01/03 08:28:59;;;;;;;3.58;1.10;;;;;;;12.06;62.67;98970.69;4988629;28;125190;-86
2024/01/03 08:31:26;;;;;;;2.50;1.02;;;;;;;12.06;62.85;98976.00;4955249;28;114367;-83
2024/01/03 08:33:54;;;;;;;2.92;1.10;;;;;;;12.08;62.73;98982.00;4969992;28;113555;-83
2024/01/03 08:36:21;;;;;;;6.13;1.35;;;;;;;12.10;62.68;98982.72;4966454;28;122032;-83
2024/01/03 08:38:49;;;;;;;4.55;1.40;;;;;;;12.12;62.83;98974.66;4963094;28;123396;-85
2024/01/03 08:41:18;;;;;;;2.03;1.00;;;;;;;12.14;62.79;98984.16;4967092;28;114210;-84
2024/01/03 08:43:46;;;;;;;4.97;1.10;;;;;;;12.15;62.70;98988.50;4972171;28;114864;-85
2024/01/03 08:46:13;;;;;;;3.65;1.00;;;;;;;12.17;62.94;98983.91;4960009;28;123259;-85
2024/01/03 08:48:44;;;;;;;4.07;1.08;;;;;;;12.20;62.86;98994.25;4972107;28;122173;-85
2024/01/03 08:51:17;;;;;;;5.93;1.13;;;;;;;12.23;62.96;98993.19;4952932;28;114838;-85
2024/01/03 08:53:45;;;;;;;3.67;1.08;;;;;;;12.23;62.91;98994.03;4954093;28;114460;-85
2024/01/03 08:56:17;;;;;;;4.18;0.93;;;;;;;12.25;63.13;99000.03;4949060;28;124554;-84
2024/01/03 08:58:46;;;;;;;5.18;0.90;;;;;;;12.28;63.06;99012.22;4973670;28;123856;-84
2024/01/03 09:01:18;;;;;;;2.55;1.00;;;;;;;12.31;63.28;99005.84;4959262;28;114454;-85
2024/01/03 09:03:46;;;;;;;5.10;1.27;;;;;;;12.32;62.99;99012.81;4982230;28;114702;-85
2024/01/03 09:06:16;;;;;;;6.40;1.10;;;;;;;12.35;62.92;99001.94;4956481;28;125057;-84
2024/01/03 09:08:46;;;;;;;6.55;1.10;;;;;;;12.38;63.10;98996.41;4950036;28;122586;-84
2024/01/03 09:11:13;;;;;;;3.78;1.20;;;;;;;12.41;63.19;98997.00;4948402;28;113425;-85
2024/01/03 09:13:41;;;;;;;10.02;0.93;;;;;;;12.44;63.06;99006.50;4949088;28;114190;-82
2024/01/03 09:16:10;;;;;;;6.65;1.30;;;;;;;12.47;62.98;99006.25;4947134;28;123725;-85
2024/01/03 09:18:37;;;;;;;8.68;1.52;;;;;;;12.50;63.07;99016.63;4943920;28;125933;-85
2024/01/03 09:21:05;;;;;;;7.45;1.30;;;;;;;12.53;63.04;99000.44;4967294;28;114453;-85
2024/01/03 09:23:32;;;;;;;3.70;1.10;;;;;;;12.58;63.05;99005.34;4951519;28;114821;-85
2024/01/03 09:26:03;;;;;;;8.73;1.58;;;;;;;12.60;63.10;99012.25;4964923;28;125779;-84
2024/01/03 09:28:31;;;;;;;7.43;1.75;;;;;;;12.63;63.26;99011.97;4949573;28;125347;-84
2024/01/03 09:31:01;;;;;;;7.95;1.55;;;;;;;12.68;63.17;99013.41;4966738;28;114456;-84
2024/01/03 09:33:28;;;;;;;5.68;1.50;;;;;;;12.72;63.13;99015.69;4966174;28;114692;-84
2024/01/03 09:35:56;;;;;;;7.90;1.58;;;;;;;12.76;63.09;99010.97;4949825;28;124571;-84
2024/01/03 09:38:23;;;;;;;13.20;1.98;;;;;;;12.79;63.18;99026.63;4965328;28;123907;-84
2024/01/03 09:40:51;;;;;;;7.38;1.40;;;;;;;12.83;63.17;99023.59;4966189;28;113195;-84
2024/01/03 09:43:19;;;;;;;13.27;2.10;;;;;;;12.86;63.12;99022.50;4950427;28;113411;-84
2024/01/03 09:45:47;;;;;;;10.70;2.13;;;;;;;12.91;63.12;99030.94;4966421;28;124324;-84
2024/01/03 09:48:15;;;;;;;7.70;1.63;;;;;;;12.94;63.02;99025.38;4965814;28;125442;-84
2024/01/03 09:50:43;;;;;;;10.38;1.77;;;;;;;12.97;63.03;99030.41;4958513;28;113296;-84
2024/01/03 09:53:12;;;;;;;11.10;2.08;;;;;;;13.00;63.08;99030.16;4950304;28;115060;-83
2024/01/03 09:55:40;;;;;;;7.50;1.70;;;;;;;13.04;62.87;99020.94;4962198;28;123793;-84
2024/01/03 09:58:07;;;;;;;19.48;1.90;;;;;;;13.09;62.94;99033.00;4942389;28;125602;-84
2024/01/03 10:00:35;;;;;;;12.05;1.95;;;;;;;13.13;63.04;99034.41;4950545;28;113319;-83
2024/01/03 10:03:03;;;;;;;14.25;1.77;;;;;;;13.17;62.84;99025.22;4967371;28;113983;-83
2024/01/03 10:05:31;;;;;;;13.32;2.00;;;;;;;13.22;62.90;99029.19;4960241;28;124527;-82
2024/01/03 10:07:58;;;;;;;8.05;1.98;;;;;;;13.27;62.88;99036.75;4958846;28;122673;-82
2024/01/03 10:10:32;;;;;;;12.93;2.20;;;;;;;13.31;62.88;99038.19;4941150;28;114406;-85
2024/01/03 10:13:14;;;;;;;8.38;1.80;;;;;;;13.38;62.74;99038.53;4954360;28;112226;-84
2024/01/03 10:15:43;;;;;;;11.60;1.92;;;;;;;13.41;62.82;99039.13;4970064;28;124958;-84
2024/01/03 10:18:14;;;;;;;10.60;2.22;;;;;;;13.46;62.70;99032.56;4958228;28;125147;-83
2024/01/03 10:20:45;;;;;;;11.82;1.75;;;;;;;13.50;62.73;99039.28;4967089;28;115244;-83
2024/01/03 10:23:14;;;;;;;9.43;1.80;;;;;;;13.52;62.52;99043.50;4969179;28;113045;-83
2024/01/03 10:25:44;;;;;;;15.27;2.13;;;;;;;13.56;62.37;99036.09;4966564;28;124002;-83
2024/01/03 10:28:15;;;;;;;10.77;1.85;;;;;;;13.58;62.50;99044.78;4960966;28;125417;-82
2024/01/03 10:30:43;;;;;;;8.70;2.05;;;;;;;13.61;62.22;99039.19;4969970;28;114936;-82
2024/01/03 10:33:10;;;;;;;11.13;2.20;;;;;;;13.61;62.47;99033.88;4972710;28;113755;-83
2024/01/03 10:35:43;;;;;;;9.00;1.63;;;;;;;13.63;62.42;99027.44;4971930;28;124245;-83
2024/01/03 10:38:13;;;;;;;12.60;2.10;;;;;;;13.67;62.44;99038.66;4966408;28;123711;-83
2024/01/03 10:40:40;;;;;;;10.85;1.95;;;;;;;13.69;62.13;99047.34;4980674;28;114976;-83
2024/01/03 10:43:11;;;;;;;13.10;2.53;;;;;;;13.70;62.03;99043.72;4993563;28;112182;-82
2024/01/03 10:45:38;;;;;;;13.95;2.45;;;;;;;13.73;62.09;99048.78;4977064;28;123656;-83
2024/01/03 10:48:06;;;;;;;12.80;2.22;;;;;;;13.75;62.13;99052.16;4994629;28;123961;-83
2024/01/03 10:50:34;;;;;;;10.55;2.25;;;;;;;13.78;62.15;99057.19;4974740;28;114421;-83
2024/01/03 10:53:09;;;;;;;14.50;2.33;;;;;;;13.79;61.94;99058.91;4967781;28;113311;-83
2024/01/03 10:55:39;;;;;;;9.18;2.20;;;;;;;13.81;61.86;99067.59;4975227;28;123017;-83
2024/01/03 10:58:18;;;;;;;13.40;2.35;;;;;;;13.85;61.88;99062.00;4971395;28;124114;-83
2024/01/03 11:00:57;;;;;;;12.48;2.53;;;;;;;13.88;61.78;99061.72;4967434;28;115368;-84
2024/01/03 11:03:45;;;;;;;12.07;2.30;;;;;;;13.90;61.73;99065.09;4969036;28;113296;-83
2024/01/03 11:06:23;;;;;;;12.07;2.08;;;;;;;13.92;61.57;99063.13;4946555;28;124406;-83
2024/01/03 11:08:55;;;;;;;10.45;2.15;;;;;;;13.93;61.55;99059.50;4934010;28;125907;-83
2024/01/03 11:11:33;;;;;;;15.48;2.35;;;;;;;13.94;61.38;99066.53;4964760;28;114411;-82
2024/01/03 11:14:20;;;;;;;17.23;2.53;;;;;;;13.95;61.49;99062.88;4949783;28;116577;-83
2024/01/03 11:16:47;;;;;;;12.52;2.50;;;;;;;13.97;61.25;99060.91;4931047;28;125488;-81
2024/01/03 11:19:26;;;;;;;15.35;2.55;;;;;;;13.98;61.48;99051.97;4966854;28;124188;-80
2024/01/03 11:21:53;;;;;;;13.20;2.50;;;;;;;14.00;61.54;99050.84;4945710;28;114415;-82
2024/01/03 11:24:20;;;;;;;11.23;2.15;;;;;;;14.02;61.28;99056.03;4934894;28;112333;-82
2024/01/03 11:26:54;;;;;;;13.63;2.50;;;;;;;14.04;61.28;99040.78;4953677;28;125086;-81